sensor_id;sensor_type;location;lat;lon;timestamp;P1;durP1;ratioP1;P2;durP2;ratioP2
59294;SDS011;45067;44.654;20.200;2023-08-30T00:01:18;19.48;;;13.32;;
59294;SDS011;45067;44.654;20.200;2023-08-30T00:03:45;22.40;;;13.50;;
59294;SDS011;45067;44.654;20.200;2023-08-30T00:06:11;19.90;;;13.27;;
59294;SDS011;45067;44.654;20.200;2023-08-30T00:08:37;17.88;;;12.38;;
59294;SDS011;45067;44.654;20.200;2023-08-30T00:11:03;19.38;;;12.82;;
59294;SDS011;45067;44.654;20.200;2023-08-30T00:13:30;21.58;;;12.38;;
59294;SDS011;45067;44.654;20.200;2023-08-30T00:15:57;21.35;;;12.77;;
59294;SDS011;45067;44.654;20.200;2023-08-30T00:18:23;21.65;;;13.18;;
59294;SDS011;45067;44.654;20.200;2023-08-30T00:20:49;21.35;;;13.68;;
59294;SDS011;45067;44.654;20.200;2023-08-30T00:23:15;19.73;;;13.05;;
59294;SDS011;45067;44.654;20.200;2023-08-30T00:28:45;19.27;;;12.88;;
59294;SDS011;45067;44.654;20.200;2023-08-30T00:31:11;21.90;;;13.65;;
59294;SDS011;45067;44.654;20.200;2023-08-30T00:33:37;21.58;;;13.63;;
59294;SDS011;45067;44.654;20.200;2023-08-30T00:36:03;19.20;;;12.52;;
59294;SDS011;45067;44.654;20.200;2023-08-30T00:38:30;19.10;;;12.82;;
59294;SDS011;45067;44.654;20.200;2023-08-30T00:44:02;18.25;;;12.27;;
59294;SDS011;45067;44.654;20.200;2023-08-30T00:46:28;20.90;;;13.23;;
59294;SDS011;45067;44.654;20.200;2023-08-30T00:48:54;19.83;;;12.75;;
59294;SDS011;45067;44.654;20.200;2023-08-30T00:51:20;17.90;;;12.55;;
59294;SDS011;45067;44.654;20.200;2023-08-30T00:53:47;18.83;;;11.98;;
59294;SDS011;45067;44.654;20.200;2023-08-30T00:59:17;16.65;;;11.80;;
59294;SDS011;45067;44.654;20.200;2023-08-30T01:01:43;23.00;;;13.77;;
59294;SDS011;45067;44.654;20.200;2023-08-30T01:04:11;21.40;;;12.68;;
59294;SDS011;45067;44.654;20.200;2023-08-30T01:06:37;18.02;;;12.90;;
59294;SDS011;45067;44.654;20.200;2023-08-30T01:09:03;18.88;;;13.30;;
59294;SDS011;45067;44.654;20.200;2023-08-30T01:14:06;21.25;;;14.25;;
59294;SDS011;45067;44.654;20.200;2023-08-30T01:16:34;21.35;;;13.65;;
59294;SDS011;45067;44.654;20.200;2023-08-30T01:19:02;23.30;;;16.10;;
59294;SDS011;45067;44.654;20.200;2023-08-30T01:24:07;22.85;;;15.25;;
59294;SDS011;45067;44.654;20.200;2023-08-30T01:26:38;29.48;;;17.35;;
59294;SDS011;45067;44.654;20.200;2023-08-30T01:29:07;28.17;;;16.77;;
59294;SDS011;45067;44.654;20.200;2023-08-30T01:31:34;22.17;;;15.18;;
59294;SDS011;45067;44.654;20.200;2023-08-30T01:34:04;23.98;;;16.70;;
59294;SDS011;45067;44.654;20.200;2023-08-30T01:36:33;21.98;;;16.15;;
59294;SDS011;45067;44.654;20.200;2023-08-30T01:39:00;26.50;;;16.05;;
59294;SDS011;45067;44.654;20.200;2023-08-30T01:44:30;23.85;;;14.23;;
59294;SDS011;45067;44.654;20.200;2023-08-30T01:46:56;21.00;;;14.10;;
59294;SDS011;45067;44.654;20.200;2023-08-30T01:49:24;25.88;;;15.15;;
59294;SDS011;45067;44.654;20.200;2023-08-30T01:51:51;25.33;;;15.00;;
59294;SDS011;45067;44.654;20.200;2023-08-30T01:54:17;21.70;;;14.40;;
59294;SDS011;45067;44.654;20.200;2023-08-30T01:56:47;21.23;;;13.85;;
59294;SDS011;45067;44.654;20.200;2023-08-30T01:59:13;23.33;;;14.50;;
59294;SDS011;45067;44.654;20.200;2023-08-30T02:01:39;25.55;;;15.10;;
59294;SDS011;45067;44.654;20.200;2023-08-30T02:04:05;20.10;;;13.90;;
59294;SDS011;45067;44.654;20.200;2023-08-30T02:06:33;21.45;;;14.50;;
59294;SDS011;45067;44.654;20.200;2023-08-30T02:09:02;20.00;;;14.32;;
59294;SDS011;45067;44.654;20.200;2023-08-30T02:14:34;21.05;;;13.75;;
59294;SDS011;45067;44.654;20.200;2023-08-30T02:17:01;18.48;;;13.40;;
59294;SDS011;45067;44.654;20.200;2023-08-30T02:19:27;23.10;;;14.18;;
59294;SDS011;45067;44.654;20.200;2023-08-30T02:21:53;22.35;;;13.98;;
59294;SDS011;45067;44.654;20.200;2023-08-30T02:24:19;23.08;;;13.10;;
59294;SDS011;45067;44.654;20.200;2023-08-30T02:26:45;19.08;;;13.55;;
59294;SDS011;45067;44.654;20.200;2023-08-30T02:29:11;25.70;;;14.18;;
59294;SDS011;45067;44.654;20.200;2023-08-30T02:31:38;18.63;;;13.07;;
59294;SDS011;45067;44.654;20.200;2023-08-30T02:34:04;19.20;;;12.90;;
59294;SDS011;45067;44.654;20.200;2023-08-30T02:36:30;20.40;;;14.07;;
59294;SDS011;45067;44.654;20.200;2023-08-30T02:38:56;19.85;;;13.35;;
59294;SDS011;45067;44.654;20.200;2023-08-30T02:44:26;18.73;;;12.82;;
59294;SDS011;45067;44.654;20.200;2023-08-30T02:46:52;20.35;;;13.55;;
59294;SDS011;45067;44.654;20.200;2023-08-30T02:49:18;18.73;;;12.93;;
59294;SDS011;45067;44.654;20.200;2023-08-30T02:51:44;16.75;;;11.32;;
59294;SDS011;45067;44.654;20.200;2023-08-30T02:54:10;18.25;;;11.35;;
59294;SDS011;45067;44.654;20.200;2023-08-30T02:59:41;19.73;;;11.93;;
59294;SDS011;45067;44.654;20.200;2023-08-30T03:02:07;15.63;;;11.38;;
59294;SDS011;45067;44.654;20.200;2023-08-30T03:04:34;17.50;;;11.88;;
59294;SDS011;45067;44.654;20.200;2023-08-30T03:07:00;18.05;;;12.48;;
59294;SDS011;45067;44.654;20.200;2023-08-30T03:09:26;20.52;;;13.93;;
59294;SDS011;45067;44.654;20.200;2023-08-30T03:14:56;18.48;;;12.55;;
59294;SDS011;45067;44.654;20.200;2023-08-30T03:17:22;18.42;;;12.52;;
59294;SDS011;45067;44.654;20.200;2023-08-30T03:19:51;18.92;;;13.57;;
59294;SDS011;45067;44.654;20.200;2023-08-30T03:22:18;24.73;;;15.52;;
59294;SDS011;45067;44.654;20.200;2023-08-30T03:24:44;20.65;;;14.00;;
59294;SDS011;45067;44.654;20.200;2023-08-30T03:27:10;18.90;;;13.50;;
59294;SDS011;45067;44.654;20.200;2023-08-30T03:29:36;20.70;;;13.88;;
59294;SDS011;45067;44.654;20.200;2023-08-30T03:32:02;26.85;;;17.10;;
59294;SDS011;45067;44.654;20.200;2023-08-30T03:34:28;28.23;;;17.58;;
59294;SDS011;45067;44.654;20.200;2023-08-30T03:36:54;31.70;;;19.08;;
59294;SDS011;45067;44.654;20.200;2023-08-30T03:39:20;30.05;;;17.90;;
59294;SDS011;45067;44.654;20.200;2023-08-30T03:44:50;42.35;;;24.60;;
59294;SDS011;45067;44.654;20.200;2023-08-30T03:47:16;37.03;;;19.48;;
59294;SDS011;45067;44.654;20.200;2023-08-30T03:49:43;43.15;;;21.50;;
59294;SDS011;45067;44.654;20.200;2023-08-30T03:52:09;38.78;;;20.60;;
59294;SDS011;45067;44.654;20.200;2023-08-30T03:54:35;34.53;;;18.20;;
59294;SDS011;45067;44.654;20.200;2023-08-30T04:00:05;32.17;;;17.58;;
59294;SDS011;45067;44.654;20.200;2023-08-30T04:02:32;29.50;;;18.33;;
59294;SDS011;45067;44.654;20.200;2023-08-30T04:04:58;28.98;;;16.98;;
59294;SDS011;45067;44.654;20.200;2023-08-30T04:07:24;26.23;;;15.50;;
59294;SDS011;45067;44.654;20.200;2023-08-30T04:09:50;29.95;;;15.77;;
59294;SDS011;45067;44.654;20.200;2023-08-30T04:12:16;24.85;;;13.95;;
59294;SDS011;45067;44.654;20.200;2023-08-30T04:14:42;26.17;;;15.63;;
59294;SDS011;45067;44.654;20.200;2023-08-30T04:17:08;22.55;;;14.82;;
59294;SDS011;45067;44.654;20.200;2023-08-30T04:19:34;27.55;;;18.67;;
59294;SDS011;45067;44.654;20.200;2023-08-30T04:22:00;32.22;;;18.45;;
59294;SDS011;45067;44.654;20.200;2023-08-30T04:24:27;27.15;;;15.57;;
59294;SDS011;45067;44.654;20.200;2023-08-30T04:29:57;21.15;;;14.18;;
59294;SDS011;45067;44.654;20.200;2023-08-30T04:32:23;20.38;;;13.52;;
59294;SDS011;45067;44.654;20.200;2023-08-30T04:34:49;22.20;;;14.60;;
59294;SDS011;45067;44.654;20.200;2023-08-30T04:37:15;25.98;;;18.58;;
59294;SDS011;45067;44.654;20.200;2023-08-30T04:39:41;21.10;;;14.38;;
59294;SDS011;45067;44.654;20.200;2023-08-30T04:45:11;21.23;;;15.00;;
59294;SDS011;45067;44.654;20.200;2023-08-30T04:47:37;21.98;;;15.63;;
59294;SDS011;45067;44.654;20.200;2023-08-30T04:50:03;24.58;;;16.17;;
59294;SDS011;45067;44.654;20.200;2023-08-30T04:52:29;25.75;;;17.20;;
59294;SDS011;45067;44.654;20.200;2023-08-30T04:54:55;26.48;;;15.65;;
59294;SDS011;45067;44.654;20.200;2023-08-30T05:00:25;21.45;;;15.32;;
59294;SDS011;45067;44.654;20.200;2023-08-30T05:02:51;25.58;;;15.65;;
59294;SDS011;45067;44.654;20.200;2023-08-30T05:05:17;23.75;;;15.95;;
59294;SDS011;45067;44.654;20.200;2023-08-30T05:07:43;24.45;;;15.68;;
59294;SDS011;45067;44.654;20.200;2023-08-30T05:10:09;28.30;;;15.75;;
59294;SDS011;45067;44.654;20.200;2023-08-30T05:12:35;22.15;;;14.95;;
59294;SDS011;45067;44.654;20.200;2023-08-30T05:15:02;24.15;;;15.80;;
59294;SDS011;45067;44.654;20.200;2023-08-30T05:17:29;21.23;;;14.98;;
59294;SDS011;45067;44.654;20.200;2023-08-30T05:19:55;23.00;;;16.17;;
59294;SDS011;45067;44.654;20.200;2023-08-30T05:22:21;28.10;;;15.95;;
59294;SDS011;45067;44.654;20.200;2023-08-30T05:24:47;22.92;;;15.23;;
59294;SDS011;45067;44.654;20.200;2023-08-30T05:30:17;26.63;;;16.35;;
59294;SDS011;45067;44.654;20.200;2023-08-30T05:32:43;33.13;;;16.40;;
59294;SDS011;45067;44.654;20.200;2023-08-30T05:35:09;25.30;;;16.27;;
59294;SDS011;45067;44.654;20.200;2023-08-30T05:37:35;24.88;;;17.77;;
59294;SDS011;45067;44.654;20.200;2023-08-30T05:40:01;28.45;;;16.45;;
59294;SDS011;45067;44.654;20.200;2023-08-30T05:45:32;33.05;;;16.80;;
59294;SDS011;45067;44.654;20.200;2023-08-30T05:47:58;25.35;;;15.32;;
59294;SDS011;45067;44.654;20.200;2023-08-30T05:50:24;21.88;;;14.98;;
59294;SDS011;45067;44.654;20.200;2023-08-30T05:52:50;21.98;;;13.68;;
59294;SDS011;45067;44.654;20.200;2023-08-30T05:55:16;23.48;;;14.18;;
59294;SDS011;45067;44.654;20.200;2023-08-30T06:01:04;24.65;;;15.05;;
59294;SDS011;45067;44.654;20.200;2023-08-30T06:03:33;24.45;;;15.93;;
59294;SDS011;45067;44.654;20.200;2023-08-30T06:06:00;26.88;;;15.00;;
59294;SDS011;45067;44.654;20.200;2023-08-30T06:08:26;22.85;;;13.90;;
59294;SDS011;45067;44.654;20.200;2023-08-30T06:10:52;26.10;;;15.13;;
59294;SDS011;45067;44.654;20.200;2023-08-30T06:13:19;30.63;;;14.60;;
59294;SDS011;45067;44.654;20.200;2023-08-30T06:15:45;22.42;;;15.30;;
59294;SDS011;45067;44.654;20.200;2023-08-30T06:18:11;27.17;;;15.63;;
59294;SDS011;45067;44.654;20.200;2023-08-30T06:20:39;23.30;;;14.13;;
59294;SDS011;45067;44.654;20.200;2023-08-30T06:23:06;25.20;;;14.77;;
59294;SDS011;45067;44.654;20.200;2023-08-30T06:25:32;22.90;;;15.25;;
59294;SDS011;45067;44.654;20.200;2023-08-30T06:27:59;20.55;;;13.60;;
59294;SDS011;45067;44.654;20.200;2023-08-30T06:30:27;20.08;;;13.98;;
59294;SDS011;45067;44.654;20.200;2023-08-30T06:32:55;21.75;;;14.15;;
59294;SDS011;45067;44.654;20.200;2023-08-30T06:35:21;22.38;;;13.25;;
59294;SDS011;45067;44.654;20.200;2023-08-30T06:37:47;21.85;;;13.57;;
59294;SDS011;45067;44.654;20.200;2023-08-30T06:40:13;22.40;;;14.73;;
59294;SDS011;45067;44.654;20.200;2023-08-30T06:45:43;23.10;;;13.30;;
59294;SDS011;45067;44.654;20.200;2023-08-30T06:48:09;18.75;;;12.63;;
59294;SDS011;45067;44.654;20.200;2023-08-30T06:50:36;40.78;;;14.38;;
59294;SDS011;45067;44.654;20.200;2023-08-30T06:53:02;32.08;;;14.57;;
59294;SDS011;45067;44.654;20.200;2023-08-30T06:55:28;24.48;;;13.82;;
59294;SDS011;45067;44.654;20.200;2023-08-30T07:00:58;18.92;;;11.75;;
59294;SDS011;45067;44.654;20.200;2023-08-30T07:03:24;19.70;;;12.40;;
59294;SDS011;45067;44.654;20.200;2023-08-30T07:05:50;17.30;;;11.40;;
59294;SDS011;45067;44.654;20.200;2023-08-30T07:08:17;22.23;;;11.73;;
59294;SDS011;45067;44.654;20.200;2023-08-30T07:10:43;20.67;;;10.65;;
59294;SDS011;45067;44.654;20.200;2023-08-30T07:13:09;17.63;;;11.32;;
59294;SDS011;45067;44.654;20.200;2023-08-30T07:15:41;15.15;;;10.70;;
59294;SDS011;45067;44.654;20.200;2023-08-30T07:18:09;16.83;;;10.27;;
59294;SDS011;45067;44.654;20.200;2023-08-30T07:20:35;20.20;;;10.85;;
59294;SDS011;45067;44.654;20.200;2023-08-30T07:23:02;16.25;;;11.02;;
59294;SDS011;45067;44.654;20.200;2023-08-30T07:25:31;16.58;;;10.23;;
59294;SDS011;45067;44.654;20.200;2023-08-30T07:31:05;18.30;;;11.68;;
59294;SDS011;45067;44.654;20.200;2023-08-30T07:33:31;16.92;;;11.90;;
59294;SDS011;45067;44.654;20.200;2023-08-30T07:35:58;17.50;;;11.88;;
59294;SDS011;45067;44.654;20.200;2023-08-30T07:38:24;24.48;;;13.05;;
59294;SDS011;45067;44.654;20.200;2023-08-30T07:40:50;18.65;;;10.82;;
59294;SDS011;45067;44.654;20.200;2023-08-30T07:43:16;18.08;;;11.55;;
59294;SDS011;45067;44.654;20.200;2023-08-30T07:45:42;17.20;;;11.35;;
59294;SDS011;45067;44.654;20.200;2023-08-30T07:48:08;18.67;;;11.95;;
59294;SDS011;45067;44.654;20.200;2023-08-30T07:50:34;19.83;;;12.30;;
59294;SDS011;45067;44.654;20.200;2023-08-30T07:53:00;18.63;;;10.38;;
59294;SDS011;45067;44.654;20.200;2023-08-30T07:55:26;19.92;;;11.95;;
59294;SDS011;45067;44.654;20.200;2023-08-30T08:00:56;13.88;;;7.57;;
59294;SDS011;45067;44.654;20.200;2023-08-30T08:03:22;12.48;;;7.80;;
59294;SDS011;45067;44.654;20.200;2023-08-30T08:05:48;15.90;;;9.40;;
59294;SDS011;45067;44.654;20.200;2023-08-30T08:08:14;14.68;;;9.30;;
59294;SDS011;45067;44.654;20.200;2023-08-30T08:10:42;17.92;;;8.85;;
59294;SDS011;45067;44.654;20.200;2023-08-30T08:16:12;11.68;;;7.57;;
59294;SDS011;45067;44.654;20.200;2023-08-30T08:18:38;13.70;;;8.95;;
59294;SDS011;45067;44.654;20.200;2023-08-30T08:21:04;13.55;;;8.70;;
59294;SDS011;45067;44.654;20.200;2023-08-30T08:23:30;13.68;;;7.72;;
59294;SDS011;45067;44.654;20.200;2023-08-30T08:25:57;15.93;;;8.20;;
59294;SDS011;45067;44.654;20.200;2023-08-30T08:31:26;15.40;;;7.53;;
59294;SDS011;45067;44.654;20.200;2023-08-30T08:34:05;14.73;;;7.80;;
59294;SDS011;45067;44.654;20.200;2023-08-30T08:36:31;11.45;;;6.10;;
59294;SDS011;45067;44.654;20.200;2023-08-30T08:38:57;12.52;;;6.40;;
59294;SDS011;45067;44.654;20.200;2023-08-30T08:41:23;11.48;;;5.70;;
59294;SDS011;45067;44.654;20.200;2023-08-30T08:43:53;14.48;;;5.53;;
59294;SDS011;45067;44.654;20.200;2023-08-30T08:46:19;12.98;;;5.68;;
59294;SDS011;45067;44.654;20.200;2023-08-30T08:48:46;10.27;;;5.60;;
59294;SDS011;45067;44.654;20.200;2023-08-30T08:51:14;8.82;;;5.28;;
59294;SDS011;45067;44.654;20.200;2023-08-30T08:53:40;9.00;;;5.47;;
59294;SDS011;45067;44.654;20.200;2023-08-30T08:56:06;9.43;;;5.38;;
59294;SDS011;45067;44.654;20.200;2023-08-30T09:01:55;9.07;;;5.05;;
59294;SDS011;45067;44.654;20.200;2023-08-30T09:04:21;9.85;;;5.32;;
59294;SDS011;45067;44.654;20.200;2023-08-30T09:06:47;13.15;;;4.75;;
59294;SDS011;45067;44.654;20.200;2023-08-30T09:09:13;9.48;;;4.55;;
59294;SDS011;45067;44.654;20.200;2023-08-30T09:11:40;6.80;;;4.28;;
59294;SDS011;45067;44.654;20.200;2023-08-30T09:14:06;6.00;;;3.90;;
59294;SDS011;45067;44.654;20.200;2023-08-30T09:16:32;11.07;;;4.82;;
59294;SDS011;45067;44.654;20.200;2023-08-30T09:18:59;10.70;;;4.85;;
59294;SDS011;45067;44.654;20.200;2023-08-30T09:21:25;11.32;;;4.53;;
59294;SDS011;45067;44.654;20.200;2023-08-30T09:24:01;10.30;;;4.15;;
59294;SDS011;45067;44.654;20.200;2023-08-30T09:26:29;8.48;;;4.25;;
59294;SDS011;45067;44.654;20.200;2023-08-30T09:29:03;6.90;;;4.03;;
59294;SDS011;45067;44.654;20.200;2023-08-30T09:31:32;7.97;;;4.07;;
59294;SDS011;45067;44.654;20.200;2023-08-30T09:33:59;7.97;;;3.75;;
59294;SDS011;45067;44.654;20.200;2023-08-30T09:36:26;9.52;;;3.83;;
59294;SDS011;45067;44.654;20.200;2023-08-30T09:38:52;6.95;;;3.92;;
59294;SDS011;45067;44.654;20.200;2023-08-30T09:41:23;7.07;;;3.63;;
59294;SDS011;45067;44.654;20.200;2023-08-30T09:43:50;10.82;;;6.97;;
59294;SDS011;45067;44.654;20.200;2023-08-30T09:46:16;6.93;;;5.13;;
59294;SDS011;45067;44.654;20.200;2023-08-30T09:48:42;7.25;;;3.42;;
59294;SDS011;45067;44.654;20.200;2023-08-30T09:51:08;9.10;;;3.65;;
59294;SDS011;45067;44.654;20.200;2023-08-30T09:53:40;5.68;;;3.60;;
59294;SDS011;45067;44.654;20.200;2023-08-30T09:56:07;6.57;;;2.97;;
59294;SDS011;45067;44.654;20.200;2023-08-30T10:01:38;9.15;;;4.55;;
59294;SDS011;45067;44.654;20.200;2023-08-30T10:04:05;8.52;;;4.00;;
59294;SDS011;45067;44.654;20.200;2023-08-30T10:06:33;8.60;;;4.70;;
59294;SDS011;45067;44.654;20.200;2023-08-30T10:08:59;9.95;;;3.90;;
59294;SDS011;45067;44.654;20.200;2023-08-30T10:11:25;7.93;;;4.00;;
59294;SDS011;45067;44.654;20.200;2023-08-30T10:17:00;7.30;;;3.67;;
59294;SDS011;45067;44.654;20.200;2023-08-30T10:19:27;7.28;;;4.07;;
59294;SDS011;45067;44.654;20.200;2023-08-30T10:22:02;8.90;;;4.03;;
59294;SDS011;45067;44.654;20.200;2023-08-30T10:24:29;8.40;;;4.25;;
59294;SDS011;45067;44.654;20.200;2023-08-30T10:26:56;8.70;;;3.80;;
59294;SDS011;45067;44.654;20.200;2023-08-30T10:29:23;8.15;;;3.72;;
59294;SDS011;45067;44.654;20.200;2023-08-30T10:31:51;5.97;;;3.30;;
59294;SDS011;45067;44.654;20.200;2023-08-30T10:34:17;6.18;;;3.63;;
59294;SDS011;45067;44.654;20.200;2023-08-30T10:36:44;7.93;;;3.50;;
59294;SDS011;45067;44.654;20.200;2023-08-30T10:39:11;5.97;;;3.00;;
59294;SDS011;45067;44.654;20.200;2023-08-30T10:41:38;4.72;;;2.97;;
59294;SDS011;45067;44.654;20.200;2023-08-30T10:44:04;7.22;;;2.90;;
59294;SDS011;45067;44.654;20.200;2023-08-30T10:46:30;5.70;;;2.80;;
59294;SDS011;45067;44.654;20.200;2023-08-30T10:49:07;4.18;;;2.90;;
59294;SDS011;45067;44.654;20.200;2023-08-30T10:51:34;4.88;;;2.60;;
59294;SDS011;45067;44.654;20.200;2023-08-30T10:54:11;5.40;;;3.00;;
59294;SDS011;45067;44.654;20.200;2023-08-30T11:02:45;5.75;;;3.00;;
59294;SDS011;45067;44.654;20.200;2023-08-30T11:05:11;5.80;;;3.20;;
59294;SDS011;45067;44.654;20.200;2023-08-30T11:07:40;5.82;;;3.38;;
59294;SDS011;45067;44.654;20.200;2023-08-30T11:10:06;5.43;;;3.13;;
59294;SDS011;45067;44.654;20.200;2023-08-30T11:12:33;4.65;;;2.70;;
59294;SDS011;45067;44.654;20.200;2023-08-30T11:15:01;8.30;;;4.13;;
59294;SDS011;45067;44.654;20.200;2023-08-30T11:17:28;4.35;;;2.65;;
59294;SDS011;45067;44.654;20.200;2023-08-30T11:19:58;5.00;;;2.88;;
59294;SDS011;45067;44.654;20.200;2023-08-30T11:22:31;4.47;;;2.70;;
59294;SDS011;45067;44.654;20.200;2023-08-30T11:24:57;5.82;;;2.60;;
59294;SDS011;45067;44.654;20.200;2023-08-30T11:27:23;5.30;;;2.70;;
59294;SDS011;45067;44.654;20.200;2023-08-30T11:29:50;5.47;;;2.83;;
59294;SDS011;45067;44.654;20.200;2023-08-30T11:32:16;4.97;;;2.65;;
59294;SDS011;45067;44.654;20.200;2023-08-30T11:34:42;5.40;;;3.00;;
59294;SDS011;45067;44.654;20.200;2023-08-30T11:37:09;5.78;;;3.15;;
59294;SDS011;45067;44.654;20.200;2023-08-30T11:39:35;6.07;;;2.75;;
59294;SDS011;45067;44.654;20.200;2023-08-30T11:42:04;6.30;;;2.70;;
59294;SDS011;45067;44.654;20.200;2023-08-30T11:44:31;4.90;;;2.58;;
59294;SDS011;45067;44.654;20.200;2023-08-30T11:46:58;4.03;;;2.60;;
59294;SDS011;45067;44.654;20.200;2023-08-30T11:49:25;5.38;;;2.92;;
59294;SDS011;45067;44.654;20.200;2023-08-30T11:51:51;5.22;;;3.35;;
59294;SDS011;45067;44.654;20.200;2023-08-30T11:54:18;5.32;;;2.80;;
59294;SDS011;45067;44.654;20.200;2023-08-30T11:56:44;4.95;;;2.55;;
59294;SDS011;45067;44.654;20.200;2023-08-30T12:02:15;6.32;;;2.75;;
59294;SDS011;45067;44.654;20.200;2023-08-30T12:04:42;3.90;;;2.60;;
59294;SDS011;45067;44.654;20.200;2023-08-30T12:07:09;4.45;;;2.80;;
59294;SDS011;45067;44.654;20.200;2023-08-30T12:09:38;6.25;;;2.90;;
59294;SDS011;45067;44.654;20.200;2023-08-30T12:12:04;5.70;;;2.88;;
59294;SDS011;45067;44.654;20.200;2023-08-30T12:14:34;5.32;;;3.60;;
59294;SDS011;45067;44.654;20.200;2023-08-30T12:17:00;5.22;;;3.13;;
59294;SDS011;45067;44.654;20.200;2023-08-30T12:19:28;6.00;;;3.83;;
59294;SDS011;45067;44.654;20.200;2023-08-30T12:21:54;5.15;;;3.00;;
59294;SDS011;45067;44.654;20.200;2023-08-30T12:24:20;4.65;;;2.92;;
59294;SDS011;45067;44.654;20.200;2023-08-30T12:26:48;5.28;;;3.00;;
59294;SDS011;45067;44.654;20.200;2023-08-30T12:32:18;4.13;;;2.72;;
59294;SDS011;45067;44.654;20.200;2023-08-30T12:34:44;4.63;;;3.50;;
59294;SDS011;45067;44.654;20.200;2023-08-30T12:37:10;6.00;;;2.75;;
59294;SDS011;45067;44.654;20.200;2023-08-30T12:39:36;4.00;;;2.55;;
59294;SDS011;45067;44.654;20.200;2023-08-30T12:42:02;7.40;;;3.10;;
59294;SDS011;45067;44.654;20.200;2023-08-30T12:47:32;3.50;;;2.42;;
59294;SDS011;45067;44.654;20.200;2023-08-30T12:49:58;4.00;;;2.97;;
59294;SDS011;45067;44.654;20.200;2023-08-30T12:52:24;3.88;;;2.58;;
59294;SDS011;45067;44.654;20.200;2023-08-30T12:54:50;3.88;;;2.50;;
59294;SDS011;45067;44.654;20.200;2023-08-30T12:57:19;4.03;;;2.65;;
59294;SDS011;45067;44.654;20.200;2023-08-30T12:59:45;3.88;;;2.60;;
59294;SDS011;45067;44.654;20.200;2023-08-30T13:02:11;4.80;;;2.97;;
59294;SDS011;45067;44.654;20.200;2023-08-30T13:04:37;4.35;;;2.92;;
59294;SDS011;45067;44.654;20.200;2023-08-30T13:07:03;5.97;;;3.03;;
59294;SDS011;45067;44.654;20.200;2023-08-30T13:09:29;9.15;;;3.53;;
59294;SDS011;45067;44.654;20.200;2023-08-30T13:11:55;7.55;;;3.10;;
59294;SDS011;45067;44.654;20.200;2023-08-30T13:17:25;4.93;;;3.05;;
59294;SDS011;45067;44.654;20.200;2023-08-30T13:19:51;5.88;;;3.17;;
59294;SDS011;45067;44.654;20.200;2023-08-30T13:22:17;10.75;;;7.47;;
59294;SDS011;45067;44.654;20.200;2023-08-30T13:24:44;5.63;;;3.55;;
59294;SDS011;45067;44.654;20.200;2023-08-30T13:27:10;6.43;;;3.17;;
59294;SDS011;45067;44.654;20.200;2023-08-30T13:32:40;6.57;;;3.20;;
59294;SDS011;45067;44.654;20.200;2023-08-30T13:35:06;10.25;;;3.88;;
59294;SDS011;45067;44.654;20.200;2023-08-30T13:37:32;8.10;;;4.53;;
59294;SDS011;45067;44.654;20.200;2023-08-30T13:39:58;8.65;;;4.82;;
59294;SDS011;45067;44.654;20.200;2023-08-30T13:42:24;5.22;;;3.88;;
59294;SDS011;45067;44.654;20.200;2023-08-30T13:47:55;6.20;;;3.40;;
59294;SDS011;45067;44.654;20.200;2023-08-30T13:50:21;8.15;;;3.65;;
59294;SDS011;45067;44.654;20.200;2023-08-30T13:52:47;8.10;;;3.67;;
59294;SDS011;45067;44.654;20.200;2023-08-30T13:55:13;7.68;;;3.70;;
59294;SDS011;45067;44.654;20.200;2023-08-30T13:57:39;8.65;;;3.40;;
59294;SDS011;45067;44.654;20.200;2023-08-30T14:00:06;8.15;;;4.70;;
59294;SDS011;45067;44.654;20.200;2023-08-30T14:02:35;6.30;;;4.25;;
59294;SDS011;45067;44.654;20.200;2023-08-30T14:05:01;10.32;;;3.83;;
59294;SDS011;45067;44.654;20.200;2023-08-30T14:07:27;6.47;;;3.90;;
59294;SDS011;45067;44.654;20.200;2023-08-30T14:09:53;7.43;;;3.45;;
59294;SDS011;45067;44.654;20.200;2023-08-30T14:12:20;8.52;;;3.30;;
59294;SDS011;45067;44.654;20.200;2023-08-30T14:17:49;13.90;;;8.00;;
59294;SDS011;45067;44.654;20.200;2023-08-30T14:20:15;13.38;;;8.75;;
59294;SDS011;45067;44.654;20.200;2023-08-30T14:22:41;8.10;;;4.70;;
59294;SDS011;45067;44.654;20.200;2023-08-30T14:25:07;10.77;;;5.75;;
59294;SDS011;45067;44.654;20.200;2023-08-30T14:27:34;5.63;;;3.78;;
59294;SDS011;45067;44.654;20.200;2023-08-30T14:33:04;8.68;;;5.43;;
59294;SDS011;45067;44.654;20.200;2023-08-30T14:35:30;10.65;;;6.50;;
59294;SDS011;45067;44.654;20.200;2023-08-30T14:37:56;12.93;;;7.40;;
59294;SDS011;45067;44.654;20.200;2023-08-30T14:40:22;13.15;;;8.27;;
59294;SDS011;45067;44.654;20.200;2023-08-30T14:42:48;12.13;;;7.03;;
59294;SDS011;45067;44.654;20.200;2023-08-30T14:45:15;13.82;;;6.57;;
59294;SDS011;45067;44.654;20.200;2023-08-30T14:47:42;11.65;;;7.20;;
59294;SDS011;45067;44.654;20.200;2023-08-30T14:50:08;10.75;;;7.68;;
59294;SDS011;45067;44.654;20.200;2023-08-30T14:52:34;16.67;;;8.30;;
59294;SDS011;45067;44.654;20.200;2023-08-30T14:55:00;13.82;;;8.43;;
59294;SDS011;45067;44.654;20.200;2023-08-30T14:57:26;19.17;;;9.05;;
59294;SDS011;45067;44.654;20.200;2023-08-30T15:02:56;16.90;;;9.50;;
59294;SDS011;45067;44.654;20.200;2023-08-30T15:05:22;16.92;;;9.57;;
59294;SDS011;45067;44.654;20.200;2023-08-30T15:07:48;18.08;;;9.77;;
59294;SDS011;45067;44.654;20.200;2023-08-30T15:10:14;20.17;;;10.35;;
59294;SDS011;45067;44.654;20.200;2023-08-30T15:12:41;13.68;;;8.50;;
59294;SDS011;45067;44.654;20.200;2023-08-30T15:18:10;10.40;;;6.95;;
59294;SDS011;45067;44.654;20.200;2023-08-30T15:20:36;11.50;;;8.25;;
59294;SDS011;45067;44.654;20.200;2023-08-30T15:23:03;12.38;;;8.65;;
59294;SDS011;45067;44.654;20.200;2023-08-30T15:25:29;15.18;;;9.23;;
59294;SDS011;45067;44.654;20.200;2023-08-30T15:27:56;11.02;;;7.10;;
59294;SDS011;45067;44.654;20.200;2023-08-30T15:33:26;10.82;;;6.20;;
59294;SDS011;45067;44.654;20.200;2023-08-30T15:35:52;11.68;;;6.18;;
59294;SDS011;45067;44.654;20.200;2023-08-30T15:38:19;11.02;;;6.93;;
59294;SDS011;45067;44.654;20.200;2023-08-30T15:40:45;13.50;;;7.80;;
59294;SDS011;45067;44.654;20.200;2023-08-30T15:43:14;9.83;;;7.17;;
59294;SDS011;45067;44.654;20.200;2023-08-30T15:45:40;10.10;;;8.02;;
59294;SDS011;45067;44.654;20.200;2023-08-30T15:48:07;13.07;;;7.97;;
59294;SDS011;45067;44.654;20.200;2023-08-30T15:50:33;15.85;;;10.20;;
59294;SDS011;45067;44.654;20.200;2023-08-30T15:52:59;10.63;;;7.90;;
59294;SDS011;45067;44.654;20.200;2023-08-30T15:55:25;14.30;;;8.60;;
59294;SDS011;45067;44.654;20.200;2023-08-30T15:57:53;13.38;;;9.65;;
59294;SDS011;45067;44.654;20.200;2023-08-30T16:03:23;11.93;;;7.20;;
59294;SDS011;45067;44.654;20.200;2023-08-30T16:05:49;11.07;;;5.70;;
59294;SDS011;45067;44.654;20.200;2023-08-30T16:08:15;9.35;;;6.40;;
59294;SDS011;45067;44.654;20.200;2023-08-30T16:10:42;12.18;;;7.20;;
59294;SDS011;45067;44.654;20.200;2023-08-30T16:13:08;11.43;;;7.00;;
59294;SDS011;45067;44.654;20.200;2023-08-30T16:18:37;9.25;;;6.82;;
59294;SDS011;45067;44.654;20.200;2023-08-30T16:21:03;13.05;;;9.38;;
59294;SDS011;45067;44.654;20.200;2023-08-30T16:23:29;10.32;;;6.90;;